createdAt,value
2018-09-08T00:02:00.638Z,9.87
2018-09-08T00:04:43.201Z,7.43
2018-09-08T00:07:16.877Z,9.30
2018-09-08T00:09:45.143Z,9.90
2018-09-08T00:12:13.382Z,7.30
2018-09-08T00:14:40.874Z,8.35
2018-09-08T00:17:14.543Z,9.63
2018-09-08T00:19:48.173Z,11.47
2018-09-08T00:22:21.922Z,8.70
2018-09-08T00:24:55.572Z,6.27
2018-09-08T00:27:46.094Z,6.87
2018-09-08T00:30:15.684Z,10.90
2018-09-08T00:32:43.917Z,7.63
2018-09-08T00:35:12.177Z,9.23
2018-09-08T00:37:40.407Z,8.58
2018-09-08T00:40:08.665Z,7.90
2018-09-08T00:42:36.970Z,6.90
2018-09-08T00:45:05.770Z,5.50
2018-09-08T00:47:34.201Z,4.50
2018-09-08T00:50:02.589Z,5.58
2018-09-08T00:52:31.012Z,7.47
2018-09-08T00:55:00.516Z,7.85
2018-09-08T00:57:29.550Z,7.03
2018-09-08T00:59:58.761Z,7.70
2018-09-08T01:02:27.057Z,7.00
2018-09-08T01:04:55.273Z,7.00
2018-09-08T01:07:28.855Z,7.83
2018-09-08T01:09:59.188Z,5.67
2018-09-08T01:12:28.979Z,5.70
2018-09-08T01:14:57.229Z,9.20
2018-09-08T01:17:25.756Z,8.00
2018-09-08T01:19:54.137Z,10.67
2018-09-08T01:22:22.465Z,9.25
2018-09-08T01:24:50.784Z,8.70
2018-09-08T01:27:19.074Z,10.20
2018-09-08T01:29:47.427Z,9.13
2018-09-08T01:32:15.665Z,12.23
2018-09-08T01:34:43.882Z,8.30
2018-09-08T01:37:12.244Z,7.42
2018-09-08T01:39:40.447Z,7.83
2018-09-08T01:42:08.681Z,6.37
2018-09-08T01:44:36.981Z,8.88
2018-09-08T01:47:05.267Z,7.63
2018-09-08T01:49:33.733Z,8.65
2018-09-08T01:52:02.292Z,9.40
2018-09-08T01:54:30.597Z,7.70
2018-09-08T01:56:58.962Z,10.63
2018-09-08T01:59:27.639Z,8.43
2018-09-08T02:01:56.259Z,8.27
2018-09-08T02:04:24.639Z,11.07
2018-09-08T02:06:52.925Z,11.03
2018-09-08T02:09:21.300Z,9.60
2018-09-08T02:11:49.586Z,11.00
2018-09-08T02:14:18.099Z,10.67
2018-09-08T02:16:46.665Z,6.62
2018-09-08T02:19:15.027Z,8.50
2018-09-08T02:21:43.374Z,11.25
2018-09-08T02:24:11.822Z,9.50
2018-09-08T02:26:40.988Z,9.73
2018-09-08T02:29:09.345Z,20.87
2018-09-08T02:31:37.708Z,28.60
2018-09-08T02:34:06.185Z,30.17
2018-09-08T02:36:34.507Z,20.62
2018-09-08T02:39:02.953Z,32.50
2018-09-08T02:41:31.675Z,13.65
2018-09-08T02:44:00.079Z,13.00
2018-09-08T02:46:28.759Z,16.63
2018-09-08T02:48:57.221Z,11.70
2018-09-08T02:51:24.467Z,10.17
2018-09-08T02:53:51.909Z,11.13
2018-09-08T02:56:19.491Z,9.90
2018-09-08T02:58:47.559Z,14.45
2018-09-08T03:01:14.815Z,11.47
2018-09-08T03:03:42.110Z,7.93
2018-09-08T03:06:09.422Z,15.63
2018-09-08T03:08:36.671Z,13.68
2018-09-08T03:11:03.946Z,14.53
2018-09-08T03:13:31.167Z,15.03
2018-09-08T03:15:58.620Z,17.87
2018-09-08T03:18:25.861Z,17.73
2018-09-08T03:20:53.170Z,18.30
2018-09-08T03:23:20.566Z,16.93
2018-09-08T03:25:48.460Z,18.90
2018-09-08T03:28:15.787Z,14.67
2018-09-08T03:30:43.155Z,12.90
2018-09-08T03:33:10.475Z,14.37
2018-09-08T03:35:37.875Z,15.58
2018-09-08T03:38:05.130Z,15.70
2018-09-08T03:40:32.368Z,10.40
2018-09-08T03:42:59.599Z,15.43
2018-09-08T03:45:26.870Z,15.63
2018-09-08T03:47:54.121Z,14.67
2018-09-08T03:50:21.527Z,15.50
2018-09-08T03:52:48.743Z,33.00
2018-09-08T03:55:16.009Z,17.27
2018-09-08T03:57:43.355Z,19.07
2018-09-08T04:00:10.783Z,31.45
2018-09-08T04:02:39.274Z,51.53
2018-09-08T04:05:07.754Z,22.17
2018-09-08T04:07:36.360Z,24.50
2018-09-08T04:10:04.718Z,152.57
2018-09-08T04:12:33.008Z,34.37
2018-09-08T04:15:01.283Z,36.50
2018-09-08T04:17:29.678Z,47.53
2018-09-08T04:19:57.989Z,32.27
2018-09-08T04:22:31.797Z,20.10
2018-09-08T04:25:00.175Z,23.50
2018-09-08T04:27:28.531Z,29.10
2018-09-08T04:29:56.919Z,22.37
2018-09-08T04:32:25.302Z,20.27
2018-09-08T04:34:53.942Z,20.07
2018-09-08T04:37:22.363Z,27.55
2018-09-08T04:39:52.670Z,16.07
2018-09-08T04:42:21.102Z,19.00
2018-09-08T04:44:49.701Z,124.27
2018-09-08T04:47:18.035Z,22.10
2018-09-08T04:49:46.365Z,23.77
2018-09-08T04:52:14.767Z,56.43
2018-09-08T04:54:43.110Z,24.30
2018-09-08T04:57:11.516Z,43.03
2018-09-08T04:59:39.823Z,24.80
2018-09-08T05:02:08.142Z,60.97
2018-09-08T05:04:36.437Z,50.97
2018-09-08T05:07:05.054Z,70.67
2018-09-08T05:09:33.382Z,27.83
2018-09-08T05:12:02.674Z,33.08
2018-09-08T05:14:31.138Z,30.00
2018-09-08T05:16:59.958Z,43.93
2018-09-08T05:19:28.637Z,33.03
2018-09-08T05:21:56.906Z,42.80
2018-09-08T05:24:25.264Z,39.67
2018-09-08T05:26:53.561Z,44.97
2018-09-08T05:29:22.054Z,70.57
2018-09-08T05:31:51.198Z,38.03
2018-09-08T05:34:19.518Z,37.60
2018-09-08T05:36:47.948Z,22.87
2018-09-08T05:39:16.320Z,24.30
2018-09-08T05:41:44.628Z,33.75
2018-09-08T05:44:13.091Z,39.73
2018-09-08T05:46:41.819Z,43.28
2018-09-08T05:49:10.494Z,27.20
2018-09-08T05:51:39.005Z,21.50
2018-09-08T05:54:07.271Z,30.40
2018-09-08T05:56:35.766Z,18.40
2018-09-08T05:59:04.038Z,18.03
2018-09-08T06:01:34.434Z,22.87
2018-09-08T06:04:02.947Z,20.97
2018-09-08T06:06:31.277Z,16.05
2018-09-08T06:08:59.800Z,18.07
2018-09-08T06:11:28.141Z,12.23
2018-09-08T06:13:56.432Z,5.60
2018-09-08T06:16:24.936Z,6.17
2018-09-08T06:18:53.895Z,6.67
2018-09-08T06:21:22.279Z,7.20
2018-09-08T06:23:50.975Z,8.00
2018-09-08T06:26:19.362Z,6.90
2018-09-08T06:28:47.949Z,4.37
2018-09-08T06:31:16.232Z,5.50
2018-09-08T06:33:44.885Z,7.45
2018-09-08T06:36:13.219Z,8.60
2018-09-08T06:38:41.914Z,7.47
2018-09-08T06:41:10.254Z,6.63
2018-09-08T06:43:38.767Z,7.17
2018-09-08T06:46:07.397Z,10.93
2018-09-08T06:48:36.300Z,8.70
2018-09-08T06:51:04.810Z,9.70
2018-09-08T06:53:33.549Z,10.53
2018-09-08T06:56:01.942Z,8.57
2018-09-08T06:58:30.536Z,10.20
2018-09-08T07:00:59.002Z,8.60
2018-09-08T07:03:28.384Z,7.90
2018-09-08T07:05:56.660Z,6.77
2018-09-08T07:08:25.030Z,6.97
2018-09-08T07:10:53.565Z,5.67
2018-09-08T07:13:21.973Z,6.03
2018-09-08T07:15:50.522Z,5.57
2018-09-08T07:18:22.730Z,5.78
2018-09-08T07:20:51.066Z,4.37
2018-09-08T07:23:20.541Z,5.15
2018-09-08T07:25:49.202Z,5.63
2018-09-08T07:28:18.736Z,5.17
2018-09-08T07:30:47.886Z,6.30
2018-09-08T07:33:16.451Z,5.33
2018-09-08T07:35:46.402Z,5.35
2018-09-08T07:38:15.918Z,6.03
2018-09-08T07:40:47.865Z,5.87
2018-09-08T07:43:20.341Z,5.00
2018-09-08T07:45:49.367Z,4.70
2018-09-08T07:48:18.623Z,4.77
2018-09-08T07:50:47.790Z,3.90
2018-09-08T07:53:16.456Z,5.30
2018-09-08T07:55:48.505Z,4.75
2018-09-08T07:58:17.270Z,3.80
2018-09-08T08:00:46.059Z,3.93
2018-09-08T08:03:15.117Z,6.10
2018-09-08T08:05:43.821Z,4.80
2018-09-08T08:08:13.130Z,6.22
2018-09-08T08:10:42.035Z,6.33
2018-09-08T08:13:10.678Z,4.30
2018-09-08T08:15:40.405Z,3.90
2018-09-08T08:18:09.167Z,4.13
2018-09-08T08:20:38.430Z,5.60
2018-09-08T08:23:07.280Z,3.63
2018-09-08T08:25:36.419Z,4.43
2018-09-08T08:28:05.055Z,5.27
2018-09-08T08:30:33.783Z,4.35
2018-09-08T08:33:02.671Z,3.77
2018-09-08T08:35:32.305Z,3.25
2018-09-08T08:38:01.795Z,4.30
2018-09-08T08:40:34.797Z,4.10
2018-09-08T08:43:03.801Z,3.80
2018-09-08T08:45:32.618Z,4.73
2018-09-08T08:48:01.383Z,4.50
2018-09-08T08:50:42.171Z,5.75
2018-09-08T08:53:21.973Z,5.53
2018-09-08T08:55:51.187Z,2.80
2018-09-08T08:58:20.945Z,2.73
2018-09-08T09:00:53.218Z,2.10
2018-09-08T09:03:22.164Z,2.10
2018-09-08T09:05:51.254Z,2.57
2018-09-08T09:08:21.205Z,2.90
2018-09-08T09:10:49.749Z,4.27
2018-09-08T09:13:18.474Z,2.70
2018-09-08T09:15:47.025Z,3.40
2018-09-08T09:18:27.061Z,3.67
2018-09-08T09:22:09.814Z,1.77
2018-09-08T09:24:51.415Z,2.00
2018-09-08T09:27:19.893Z,9.27
2018-09-08T09:29:48.484Z,2.10
2018-09-08T09:32:17.138Z,3.00
2018-09-08T09:34:46.506Z,2.42
2018-09-08T09:37:15.572Z,3.50
2018-09-08T09:39:44.393Z,1.90
2018-09-08T09:42:13.839Z,2.83
2018-09-08T09:44:43.352Z,3.70
2018-09-08T09:47:12.256Z,2.57
2018-09-08T09:49:40.951Z,2.07
2018-09-08T09:52:10.474Z,1.72
2018-09-08T09:54:39.320Z,2.97
2018-09-08T09:57:09.396Z,4.63
2018-09-08T09:59:38.030Z,2.00
2018-09-08T10:02:11.876Z,2.10
2018-09-08T10:04:40.749Z,3.00
2018-09-08T10:07:14.906Z,3.43
2018-09-08T10:09:43.463Z,3.13
2018-09-08T10:12:12.493Z,2.25
2018-09-08T10:14:41.297Z,2.92
2018-09-08T10:17:10.816Z,2.25
2018-09-08T10:19:39.907Z,2.57
2018-09-08T10:22:09.045Z,2.40
2018-09-08T10:24:37.832Z,2.83
2018-09-08T10:27:06.891Z,1.73
2018-09-08T10:29:36.305Z,3.10
2018-09-08T10:32:05.622Z,3.17
2018-09-08T10:34:34.279Z,3.20
2018-09-08T10:37:02.908Z,2.03
2018-09-08T10:39:31.667Z,1.45
2018-09-08T10:42:00.683Z,1.80
2018-09-08T10:44:29.481Z,3.42
2018-09-08T10:46:58.888Z,2.62
2018-09-08T10:49:28.969Z,2.30
2018-09-08T10:52:14.007Z,4.30
2018-09-08T10:54:42.534Z,3.03
2018-09-08T10:57:12.401Z,2.90
2018-09-08T10:59:46.941Z,2.87
2018-09-08T11:02:17.512Z,2.33
2018-09-08T11:04:52.279Z,1.47
2018-09-08T11:07:22.447Z,2.77
2018-09-08T11:09:51.603Z,3.43
2018-09-08T11:12:20.984Z,4.50
2018-09-08T11:14:49.678Z,2.70
2018-09-08T11:17:18.438Z,3.12
2018-09-08T11:19:47.505Z,1.42
2018-09-08T11:22:16.894Z,1.92
2018-09-08T11:24:45.580Z,3.30
2018-09-08T11:27:14.760Z,2.52
2018-09-08T11:29:44.370Z,2.57
2018-09-08T11:32:13.210Z,3.80
2018-09-08T11:34:42.601Z,4.40
2018-09-08T11:37:11.394Z,1.60
2018-09-08T11:39:40.052Z,2.13
2018-09-08T11:42:09.745Z,2.37
2018-09-08T11:44:38.297Z,2.90
2018-09-08T11:47:07.427Z,3.08
2018-09-08T11:49:36.269Z,3.50
2018-09-08T11:52:04.867Z,4.47
2018-09-08T11:54:34.761Z,2.72
2018-09-08T11:57:03.448Z,4.03
2018-09-08T11:59:32.768Z,3.40
2018-09-08T12:02:01.717Z,4.23
2018-09-08T12:04:30.832Z,2.00
2018-09-08T12:06:59.602Z,2.93
2018-09-08T12:09:30.209Z,2.10
2018-09-08T12:12:00.242Z,3.53
2018-09-08T12:14:29.818Z,4.17
2018-09-08T12:16:58.879Z,3.13
2018-09-08T12:19:28.395Z,4.40
2018-09-08T12:21:56.916Z,2.70
2018-09-08T12:24:27.139Z,2.10
2018-09-08T12:26:56.666Z,3.43
2018-09-08T12:29:30.851Z,2.87
2018-09-08T12:32:00.689Z,3.13
2018-09-08T12:34:30.290Z,3.33
2018-09-08T12:36:59.081Z,2.97
2018-09-08T12:39:28.421Z,2.60
2018-09-08T12:41:58.342Z,2.80
2018-09-08T12:44:27.397Z,2.73
2018-09-08T12:46:56.398Z,2.73
2018-09-08T12:49:25.795Z,5.60
2018-09-08T12:51:55.482Z,3.40
2018-09-08T12:54:24.357Z,3.50
2018-09-08T12:56:53.190Z,2.70
2018-09-08T12:59:22.565Z,3.90
2018-09-08T13:01:53.263Z,2.73
2018-09-08T13:04:21.813Z,2.60
2018-09-08T13:06:50.511Z,2.50
2018-09-08T13:09:19.707Z,2.17
2018-09-08T13:11:48.029Z,3.72
2018-09-08T13:14:16.276Z,1.73
2018-09-08T13:16:44.504Z,4.15
2018-09-08T13:19:17.177Z,2.60
2018-09-08T13:21:45.467Z,2.37
2018-09-08T13:24:13.685Z,2.27
2018-09-08T13:26:41.973Z,2.52
2018-09-08T13:29:10.238Z,2.43
2018-09-08T13:31:38.466Z,3.20
2018-09-08T13:34:06.774Z,3.60
2018-09-08T13:36:35.050Z,3.27
2018-09-08T13:39:03.613Z,2.70
2018-09-08T13:41:31.883Z,4.10
2018-09-08T13:44:01.136Z,3.97
2018-09-08T13:46:30.142Z,1.90
2018-09-08T13:48:59.051Z,3.23
2018-09-08T13:51:27.293Z,2.83
2018-09-08T13:53:56.937Z,3.67
2018-09-08T13:56:25.168Z,1.50
2018-09-08T13:58:53.393Z,4.63
2018-09-08T14:01:21.734Z,3.60
2018-09-08T14:03:50.156Z,2.93
2018-09-08T14:06:18.502Z,2.70
2018-09-08T14:08:46.777Z,2.40
2018-09-08T14:11:15.548Z,4.53
2018-09-08T14:13:47.013Z,4.97
2018-09-08T14:16:15.437Z,3.10
2018-09-08T14:18:43.768Z,3.85
2018-09-08T14:21:12.182Z,4.37
2018-09-08T14:23:40.464Z,2.30
2018-09-08T14:26:08.971Z,2.10
2018-09-08T14:28:37.901Z,2.45
2018-09-08T14:31:06.139Z,2.37
2018-09-08T14:33:34.597Z,2.37
2018-09-08T14:36:02.918Z,1.50
2018-09-08T14:38:31.403Z,3.50
2018-09-08T14:41:00.929Z,2.00
2018-09-08T14:43:29.825Z,6.00
2018-09-08T14:45:59.224Z,3.03
2018-09-08T14:48:28.213Z,3.17
2018-09-08T14:50:56.554Z,1.80
2018-09-08T14:53:24.833Z,5.17
2018-09-08T14:55:53.170Z,1.87
2018-09-08T14:58:21.430Z,2.60
2018-09-08T15:00:49.799Z,4.00
2018-09-08T15:03:19.301Z,1.52
2018-09-08T15:05:47.541Z,3.30
2018-09-08T15:08:15.844Z,2.20
2018-09-08T15:10:45.201Z,1.82
2018-09-08T15:13:13.486Z,3.80
2018-09-08T15:15:41.732Z,2.47
2018-09-08T15:18:11.061Z,2.80
2018-09-08T15:20:39.373Z,2.53
2018-09-08T15:23:07.822Z,2.47
2018-09-08T15:25:36.065Z,1.93
2018-09-08T15:28:04.367Z,2.57
2018-09-08T15:30:32.745Z,2.67
2018-09-08T15:33:01.128Z,1.80
2018-09-08T15:35:30.505Z,2.40
2018-09-08T15:37:59.738Z,1.80
2018-09-08T15:40:29.136Z,2.37
2018-09-08T15:42:58.981Z,2.67
2018-09-08T15:45:27.242Z,4.00
2018-09-08T15:47:55.632Z,1.98
2018-09-08T15:50:24.185Z,2.47
2018-09-08T15:52:56.361Z,2.42
2018-09-08T15:55:24.623Z,2.20
2018-09-08T15:57:52.994Z,2.00
2018-09-08T16:00:21.549Z,2.17
2018-09-08T16:02:50.603Z,1.77
2018-09-08T16:05:18.970Z,1.40
2018-09-08T16:07:47.341Z,2.90
2018-09-08T16:10:16.393Z,2.33
2018-09-08T16:12:45.660Z,1.93
2018-09-08T16:15:17.284Z,2.23
2018-09-08T16:17:46.494Z,3.87
2018-09-08T16:20:18.550Z,2.10
2018-09-08T16:22:47.110Z,2.97
2018-09-08T16:25:16.101Z,2.02
2018-09-08T16:27:48.973Z,2.80
2018-09-08T16:30:28.382Z,4.37
2018-09-08T16:33:08.649Z,3.27
2018-09-08T16:35:47.241Z,7.80
2018-09-08T16:38:23.218Z,3.47
2018-09-08T16:40:56.873Z,4.77
2018-09-08T16:43:35.625Z,7.03
2018-09-08T16:46:19.600Z,2.07
2018-09-08T16:48:48.148Z,2.63
2018-09-08T16:51:19.431Z,1.50
2018-09-08T16:53:47.798Z,3.97
2018-09-08T16:56:16.814Z,2.05
2018-09-08T16:58:45.735Z,2.77
2018-09-08T17:01:14.571Z,3.00
2018-09-08T17:03:43.150Z,3.37
2018-09-08T17:06:11.356Z,2.27
2018-09-08T17:08:41.360Z,2.17
2018-09-08T17:11:09.641Z,2.80
2018-09-08T17:13:39.110Z,1.77
2018-09-08T17:16:07.432Z,3.10
2018-09-08T17:18:35.679Z,2.00
2018-09-08T17:21:04.073Z,2.37
2018-09-08T17:23:32.632Z,3.57
2018-09-08T17:26:02.840Z,4.00
2018-09-08T17:28:44.836Z,2.87
2018-09-08T17:31:13.208Z,4.73
2018-09-08T17:33:41.481Z,2.03
2018-09-08T17:36:09.731Z,2.87
2018-09-08T17:38:38.088Z,2.60
2018-09-08T17:41:10.909Z,2.20
2018-09-08T17:43:39.367Z,2.47
2018-09-08T17:46:07.597Z,2.67
2018-09-08T17:48:38.205Z,3.35
2018-09-08T17:51:06.783Z,3.00
2018-09-08T17:53:35.346Z,1.67
2018-09-08T17:56:03.802Z,5.03
2018-09-08T18:01:30.892Z,1.70
2018-09-08T18:03:59.237Z,2.40
2018-09-08T18:06:27.768Z,2.33
2018-09-08T18:08:57.188Z,2.63
2018-09-08T18:11:25.577Z,3.25
2018-09-08T18:13:54.137Z,2.03
2018-09-08T18:16:22.450Z,1.95
2018-09-08T18:18:50.821Z,2.53
2018-09-08T18:21:19.219Z,2.27
2018-09-08T18:23:47.508Z,2.90
2018-09-08T18:26:17.896Z,3.27
2018-09-08T18:28:47.376Z,2.80
2018-09-08T18:31:16.686Z,2.27
2018-09-08T18:33:46.386Z,3.13
2018-09-08T18:36:16.009Z,2.77
2018-09-08T18:38:45.014Z,3.27
2018-09-08T18:41:13.257Z,3.00
2018-09-08T18:43:41.563Z,4.43
2018-09-08T18:46:09.858Z,6.20
2018-09-08T18:48:38.949Z,2.33
2018-09-08T18:51:07.225Z,2.07
2018-09-08T18:53:35.439Z,3.70
2018-09-08T18:56:03.678Z,2.75
2018-09-08T18:58:32.011Z,3.47
2018-09-08T19:01:00.515Z,1.87
2018-09-08T19:03:28.725Z,4.60
2018-09-08T19:05:56.961Z,3.23
2018-09-08T19:08:29.418Z,2.03
2018-09-08T19:10:57.734Z,2.00
2018-09-08T19:13:26.367Z,2.43
2018-09-08T19:15:54.773Z,3.27
2018-09-08T19:18:23.407Z,3.75
2018-09-08T19:20:51.760Z,4.67
2018-09-08T19:23:21.249Z,3.22
2018-09-08T19:25:49.524Z,3.00
2018-09-08T19:28:17.719Z,3.63
2018-09-08T19:30:47.040Z,3.72
2018-09-08T19:33:16.727Z,2.73
2018-09-08T19:35:45.698Z,3.03
2018-09-08T19:38:15.294Z,3.07
2018-09-08T19:40:46.780Z,2.30
2018-09-08T19:43:16.071Z,3.60
2018-09-08T19:45:44.402Z,5.63
2018-09-08T19:48:16.891Z,4.17
2018-09-08T19:50:46.388Z,4.67
2018-09-08T19:53:20.084Z,6.27
2018-09-08T19:55:48.579Z,3.47
2018-09-08T19:58:22.585Z,2.67
2018-09-08T20:00:50.814Z,2.93
2018-09-08T20:03:20.194Z,4.23
2018-09-08T20:05:48.465Z,5.00
2018-09-08T20:08:17.142Z,7.70
2018-09-08T20:10:47.202Z,4.27
2018-09-08T20:13:15.675Z,3.97
2018-09-08T20:15:44.891Z,4.30
2018-09-08T20:18:15.220Z,3.20
2018-09-08T20:20:44.258Z,3.17
2018-09-08T20:23:12.527Z,3.20
2018-09-08T20:25:40.825Z,3.43
2018-09-08T20:28:09.077Z,2.87
2018-09-08T20:30:37.368Z,3.07
2018-09-08T20:33:05.745Z,3.70
2018-09-08T20:35:34.135Z,4.73
2018-09-08T20:38:02.373Z,3.33
2018-09-08T20:40:30.596Z,3.53
2018-09-08T20:42:58.818Z,5.03
2018-09-08T20:45:27.073Z,2.35
2018-09-08T20:47:55.408Z,5.60
2018-09-08T20:50:23.748Z,2.37
2018-09-08T20:52:51.948Z,3.22
2018-09-08T20:55:20.193Z,4.53
2018-09-08T20:57:48.453Z,4.30
2018-09-08T21:00:16.823Z,3.42
2018-09-08T21:02:46.050Z,3.57
2018-09-08T21:05:17.454Z,3.77
2018-09-08T21:07:46.696Z,3.10
2018-09-08T21:10:16.409Z,2.53
2018-09-08T21:13:05.476Z,3.87
2018-09-08T21:15:35.490Z,3.63
2018-09-08T21:18:03.857Z,3.92
2018-09-08T21:20:32.255Z,3.23
2018-09-08T21:23:00.502Z,5.57
2018-09-08T21:25:28.796Z,2.97
2018-09-08T21:27:57.091Z,6.37
2018-09-08T21:30:25.362Z,4.33
2018-09-08T21:32:53.631Z,4.37
2018-09-08T21:35:22.005Z,4.35
2018-09-08T21:37:50.558Z,3.53
2018-09-08T21:40:18.869Z,2.95
2018-09-08T21:42:47.450Z,3.23
2018-09-08T21:45:16.978Z,4.12
2018-09-08T21:47:46.371Z,5.00
2018-09-08T21:50:15.796Z,4.90
2018-09-08T21:52:48.506Z,3.07
2018-09-08T21:55:17.612Z,3.57
2018-09-08T21:57:48.210Z,4.30
2018-09-08T22:00:17.407Z,4.53
2018-09-08T22:02:46.593Z,3.40
2018-09-08T22:05:15.280Z,3.13
2018-09-08T22:07:44.017Z,3.77
2018-09-08T22:10:12.298Z,3.55
2018-09-08T22:12:40.493Z,5.93
2018-09-08T22:15:08.773Z,5.33
2018-09-08T22:17:37.070Z,5.50
2018-09-08T22:20:05.520Z,3.65
2018-09-08T22:22:33.813Z,3.77
2018-09-08T22:25:02.090Z,4.03
2018-09-08T22:27:30.358Z,4.60
2018-09-08T22:29:58.611Z,4.23
2018-09-08T22:32:26.890Z,4.12
2018-09-08T22:34:58.371Z,3.50
2018-09-08T22:37:26.650Z,3.00
2018-09-08T22:39:55.030Z,3.57
2018-09-08T22:42:23.506Z,3.87
2018-09-08T22:44:51.920Z,2.95
2018-09-08T22:47:20.241Z,4.73
2018-09-08T22:49:48.686Z,3.22
2018-09-08T22:52:17.033Z,4.03
2018-09-08T22:54:46.465Z,6.13
2018-09-08T22:57:15.873Z,2.93
2018-09-08T22:59:44.907Z,4.10
2018-09-08T23:02:13.158Z,3.27
2018-09-08T23:04:41.520Z,5.20
2018-09-08T23:07:09.896Z,3.00
2018-09-08T23:09:39.500Z,2.83
2018-09-08T23:12:17.673Z,6.77
2018-09-08T23:14:45.999Z,5.00
2018-09-08T23:17:14.320Z,2.95
2018-09-08T23:19:42.747Z,3.17
2018-09-08T23:22:11.092Z,4.97
2018-09-08T23:24:39.438Z,3.37
2018-09-08T23:27:07.732Z,3.75
2018-09-08T23:32:34.830Z,4.93
2018-09-08T23:35:04.210Z,4.00
2018-09-08T23:37:32.488Z,3.93
2018-09-08T23:40:00.844Z,4.77
2018-09-08T23:42:29.180Z,4.10
2018-09-08T23:44:57.464Z,5.73
2018-09-08T23:47:25.829Z,3.50
2018-09-08T23:49:54.401Z,3.53
2018-09-08T23:52:22.631Z,3.37
2018-09-08T23:54:51.319Z,3.97
2018-09-08T23:57:19.766Z,3.92
2018-09-08T23:59:48.065Z,4.40
